Time;durP1;ratioP1;P1;durP2;ratioP2;P2;SDS_P1;SDS_P2;PMS_P1;PMS_P2;Temp;Humidity;BMP_temperature;BMP_pressure;BME280_temperature;BME280_humidity;BME280_pressure;Samples;Min_cycle;Max_cycle;Signal;HPM_P1;HPM_P2
2024/01/10 00:00:09;;;;;;;57.63;25.47;;;-10.10;99.90;;;;;;5010120;28;20614;-49
2024/01/10 00:02:35;;;;;;;56.20;22.23;;;-10.10;99.90;;;;;;4998999;28;20688;-50
2024/01/10 00:05:00;;;;;;;63.90;25.57;;;-10.10;99.90;;;;;;5009689;28;20025;-50
2024/01/10 00:07:26;;;;;;;54.80;22.40;;;-10.20;99.90;;;;;;5010339;28;20040;-51
2024/01/10 00:09:51;;;;;;;50.40;19.17;;;-10.20;99.90;;;;;;5013617;28;20033;-50
2024/01/10 00:12:17;;;;;;;76.00;28.07;;;-10.20;99.90;;;;;;5022359;28;20033;-49
2024/01/10 00:14:42;;;;;;;42.40;18.63;;;-10.20;99.90;;;;;;5018972;28;20140;-48
2024/01/10 00:17:08;;;;;;;75.83;28.30;;;-10.20;99.90;;;;;;5013539;28;20065;-50
2024/01/10 00:19:33;;;;;;;55.00;21.70;;;-10.10;99.90;;;;;;5017944;28;20029;-47
2024/01/10 00:21:59;;;;;;;61.70;22.87;;;-10.10;99.90;;;;;;5016390;28;20604;-45
2024/01/10 00:24:24;;;;;;;59.67;22.13;;;-10.20;99.90;;;;;;5008586;28;20065;-50
2024/01/10 00:26:50;;;;;;;40.70;20.07;;;-10.20;99.90;;;;;;5018878;28;20029;-58
2024/01/10 00:29:15;;;;;;;53.13;20.17;;;-10.20;99.90;;;;;;5020581;28;20104;-59
2024/01/10 00:31:41;;;;;;;48.20;19.70;;;-10.30;99.90;;;;;;5020448;28;20025;-59
2024/01/10 00:34:06;;;;;;;54.13;21.27;;;-10.30;99.90;;;;;;5024588;28;20029;-59
2024/01/10 00:36:32;;;;;;;57.50;21.00;;;-10.30;99.90;;;;;;5018217;28;20030;-59
2024/01/10 00:38:57;;;;;;;55.93;22.43;;;-10.30;99.90;;;;;;5014917;28;20033;-59
2024/01/10 00:41:23;;;;;;;50.80;19.40;;;-10.30;99.90;;;;;;5009829;28;20477;-59
2024/01/10 00:43:48;;;;;;;51.50;20.97;;;-10.30;99.90;;;;;;5014868;28;20512;-59
2024/01/10 00:46:14;;;;;;;52.77;20.27;;;-10.30;99.90;;;;;;5001102;28;20104;-59
2024/01/10 00:48:39;;;;;;;52.80;21.07;;;-10.30;99.90;;;;;;5019813;28;20483;-58
2024/01/10 00:51:08;;;;;;;45.27;18.03;;;-10.30;99.90;;;;;;5016100;28;20450;-59
2024/01/10 00:53:34;;;;;;;48.73;18.97;;;-10.40;99.90;;;;;;5013710;28;20414;-59
2024/01/10 00:56:00;;;;;;;50.57;21.33;;;-10.40;99.90;;;;;;5016085;28;20457;-59
2024/01/10 00:58:25;;;;;;;46.20;19.53;;;-10.40;99.90;;;;;;5019384;28;20073;-59
2024/01/10 01:00:51;;;;;;;51.57;20.83;;;-10.40;99.90;;;;;;5019611;28;20037;-59
2024/01/10 01:03:16;;;;;;;46.00;18.60;;;-10.40;99.90;;;;;;5006075;28;20018;-59
2024/01/10 01:05:41;;;;;;;42.53;19.27;;;-10.40;99.90;;;;;;5017315;28;20021;-59
2024/01/10 01:08:07;;;;;;;52.73;20.27;;;-10.40;99.90;;;;;;5012387;28;20022;-59
2024/01/10 01:10:33;;;;;;;70.10;27.33;;;-10.40;99.90;;;;;;5012712;28;24102;-59
2024/01/10 01:12:59;;;;;;;51.80;18.80;;;-10.50;99.90;;;;;;5013885;28;20052;-59
2024/01/10 01:15:24;;;;;;;64.90;22.60;;;-10.50;99.90;;;;;;5009730;28;20104;-59
2024/01/10 01:17:50;;;;;;;62.00;28.03;;;-10.50;99.90;;;;;;5013715;28;20038;-59
2024/01/10 01:20:15;;;;;;;65.07;25.27;;;-10.50;99.90;;;;;;5014038;28;20555;-59
2024/01/10 01:22:41;;;;;;;65.50;22.63;;;-10.50;99.90;;;;;;5014999;28;20041;-59
2024/01/10 01:25:07;;;;;;;66.07;24.93;;;-10.50;99.90;;;;;;5011361;28;20517;-59
2024/01/10 01:27:33;;;;;;;82.53;25.57;;;-10.50;99.90;;;;;;5013418;28;20044;-59
2024/01/10 01:29:58;;;;;;;62.90;24.30;;;-10.40;99.90;;;;;;5010920;28;20017;-59
2024/01/10 01:32:23;;;;;;;61.67;24.63;;;-10.40;99.90;;;;;;5018430;28;20052;-59
2024/01/10 01:34:49;;;;;;;62.17;25.10;;;-10.40;99.90;;;;;;5018929;28;20059;-58
2024/01/10 01:37:15;;;;;;;58.27;24.27;;;-10.40;99.90;;;;;;5019991;28;20034;-59
2024/01/10 01:39:40;;;;;;;46.37;20.60;;;-10.40;99.90;;;;;;5016697;28;20030;-59
2024/01/10 01:42:06;;;;;;;73.53;28.13;;;-10.40;99.90;;;;;;5005495;28;20026;-59
2024/01/10 01:44:31;;;;;;;70.13;27.07;;;-10.40;99.90;;;;;;5009811;28;20726;-60
2024/01/10 01:46:58;;;;;;;54.20;24.63;;;-10.50;99.90;;;;;;5010660;28;20562;-59
2024/01/10 01:49:25;;;;;;;54.33;22.70;;;-10.50;99.90;;;;;;5011316;28;20033;-59
2024/01/10 01:51:51;;;;;;;59.20;24.63;;;-10.50;99.90;;;;;;5016825;28;20099;-59
2024/01/10 01:54:17;;;;;;;67.70;26.67;;;-10.50;99.90;;;;;;5003866;28;20018;-59
2024/01/10 01:56:44;;;;;;;75.23;30.73;;;-10.50;99.90;;;;;;5016134;28;20037;-59
2024/01/10 01:59:10;;;;;;;81.97;28.40;;;-10.40;99.90;;;;;;5004739;28;20042;-59
2024/01/10 02:01:36;;;;;;;85.43;30.53;;;-10.40;99.90;;;;;;5013030;28;20105;-59
2024/01/10 02:04:02;;;;;;;88.53;31.93;;;-10.40;99.90;;;;;;5018732;28;20482;-59
2024/01/10 02:06:29;;;;;;;79.30;30.77;;;-10.40;99.90;;;;;;5020073;28;20458;-59
2024/01/10 02:08:56;;;;;;;90.10;33.37;;;-10.30;99.90;;;;;;5020835;28;20099;-59
2024/01/10 02:11:22;;;;;;;96.97;32.57;;;-10.30;99.90;;;;;;5014713;28;20036;-60
2024/01/10 02:13:48;;;;;;;73.00;30.67;;;-10.30;99.90;;;;;;5018957;28;20022;-59
2024/01/10 02:16:13;;;;;;;75.00;30.97;;;-10.30;99.90;;;;;;5014606;28;20032;-59
2024/01/10 02:18:39;;;;;;;97.37;36.70;;;-10.30;99.90;;;;;;5018856;28;20065;-59
2024/01/10 02:21:04;;;;;;;79.93;31.00;;;-10.30;99.90;;;;;;5018423;28;20096;-58
2024/01/10 02:23:30;;;;;;;79.43;30.70;;;-10.30;99.90;;;;;;5013038;28;20556;-59
2024/01/10 02:25:55;;;;;;;99.10;35.87;;;-10.30;99.90;;;;;;5011313;28;20107;-59
2024/01/10 02:28:23;;;;;;;80.10;31.50;;;-10.30;99.90;;;;;;5013568;28;20083;-59
2024/01/10 02:30:49;;;;;;;94.27;33.67;;;-10.20;99.90;;;;;;5004521;28;20417;-59
2024/01/10 02:33:15;;;;;;;70.10;27.67;;;-10.30;99.90;;;;;;5016329;28;20120;-59
2024/01/10 02:35:40;;;;;;;85.03;33.50;;;-10.30;99.90;;;;;;5011196;28;20461;-59
2024/01/10 02:38:06;;;;;;;68.73;27.17;;;-10.20;99.90;;;;;;5012696;28;20105;-59
2024/01/10 02:40:31;;;;;;;63.73;26.97;;;-10.20;99.90;;;;;;5014503;28;20458;-59
2024/01/10 02:42:57;;;;;;;69.33;27.73;;;-10.20;99.90;;;;;;5010309;28;20064;-59
2024/01/10 02:45:22;;;;;;;71.63;29.33;;;-10.20;99.90;;;;;;5010421;28;20761;-59
2024/01/10 02:47:48;;;;;;;66.93;26.30;;;-10.20;99.90;;;;;;5018146;28;20048;-59
2024/01/10 02:50:13;;;;;;;88.83;31.53;;;-10.20;99.90;;;;;;5006491;28;20030;-59
2024/01/10 02:52:39;;;;;;;68.60;26.33;;;-10.20;99.90;;;;;;5016618;28;20398;-59
2024/01/10 02:55:05;;;;;;;81.30;31.30;;;-10.20;99.90;;;;;;5021398;28;20037;-60
2024/01/10 02:57:30;;;;;;;73.67;30.20;;;-10.20;99.90;;;;;;5017174;28;20057;-60
2024/01/10 02:59:55;;;;;;;83.73;33.03;;;-10.20;99.90;;;;;;5008348;28;20022;-59
2024/01/10 03:02:23;;;;;;;63.37;26.07;;;-10.20;99.90;;;;;;5005952;28;20086;-59
2024/01/10 03:04:48;;;;;;;69.50;27.43;;;-10.20;99.90;;;;;;5018054;28;20072;-59
2024/01/10 03:07:14;;;;;;;80.07;30.27;;;-10.20;99.90;;;;;;5025859;28;20061;-59
2024/01/10 03:09:39;;;;;;;79.97;30.33;;;-10.20;99.90;;;;;;5023677;28;20029;-59
2024/01/10 03:12:05;;;;;;;78.23;30.87;;;-10.20;99.90;;;;;;5021974;28;20029;-59
2024/01/10 03:14:32;;;;;;;108.03;37.47;;;-10.20;99.90;;;;;;5013602;28;20117;-60
2024/01/10 03:16:57;;;;;;;86.90;34.83;;;-10.20;99.90;;;;;;5018056;28;20038;-59
2024/01/10 03:19:23;;;;;;;84.57;33.37;;;-10.10;99.90;;;;;;5021653;28;20087;-59
2024/01/10 03:21:48;;;;;;;100.70;32.40;;;-10.10;99.90;;;;;;5017777;28;20026;-57
2024/01/10 03:24:14;;;;;;;72.90;29.23;;;-10.10;99.90;;;;;;5015379;28;20486;-59
2024/01/10 03:26:39;;;;;;;86.43;34.00;;;-10.10;99.90;;;;;;5017560;28;20466;-59
2024/01/10 03:29:05;;;;;;;83.57;32.80;;;-10.10;99.90;;;;;;5006868;28;20033;-59
2024/01/10 03:31:31;;;;;;;75.63;28.07;;;-10.10;99.90;;;;;;5018346;28;20029;-59
2024/01/10 03:33:58;;;;;;;74.27;29.83;;;-10.10;99.90;;;;;;5017214;28;20022;-59
2024/01/10 03:36:24;;;;;;;66.10;27.77;;;-10.10;99.90;;;;;;5011429;28;20025;-60
2024/01/10 03:38:50;;;;;;;66.87;26.43;;;-10.10;99.90;;;;;;5017350;28;20108;-59
2024/01/10 03:41:19;;;;;;;86.63;31.77;;;-10.20;99.90;;;;;;5021835;28;20100;-59
2024/01/10 03:43:45;;;;;;;61.80;25.10;;;-10.20;99.90;;;;;;5023106;28;20112;-59
2024/01/10 03:46:11;;;;;;;76.57;30.00;;;-10.20;99.90;;;;;;5019934;28;20164;-59
2024/01/10 03:48:37;;;;;;;75.67;32.73;;;-10.20;99.90;;;;;;5012583;28;20033;-59
2024/01/10 03:51:02;;;;;;;70.17;28.23;;;-10.20;99.90;;;;;;5010584;28;20681;-59
2024/01/10 03:53:28;;;;;;;67.17;27.63;;;-10.20;99.90;;;;;;5012815;28;20045;-60
2024/01/10 03:55:54;;;;;;;68.97;29.00;;;-10.20;99.90;;;;;;5016822;28;20029;-58
2024/01/10 03:58:19;;;;;;;67.60;25.07;;;-10.20;99.90;;;;;;5016541;28;20061;-59
2024/01/10 04:00:45;;;;;;;63.53;24.20;;;-10.30;99.90;;;;;;5021203;28;20122;-59
2024/01/10 04:03:10;;;;;;;60.40;23.37;;;-10.30;99.90;;;;;;5016138;28;20036;-58
2024/01/10 04:05:36;;;;;;;80.40;29.80;;;-10.30;99.90;;;;;;5008754;28;20129;-59
2024/01/10 04:08:02;;;;;;;65.70;26.60;;;-10.30;99.90;;;;;;5003788;28;20018;-59
2024/01/10 04:10:27;;;;;;;66.33;25.07;;;-10.30;99.90;;;;;;5010560;28;20037;-59
2024/01/10 04:12:53;;;;;;;59.23;23.00;;;-10.30;99.90;;;;;;5013408;28;20021;-59
2024/01/10 04:15:19;;;;;;;48.40;20.57;;;-10.40;99.90;;;;;;5009226;28;20030;-59
2024/01/10 04:17:44;;;;;;;57.87;22.00;;;-10.40;99.90;;;;;;5014680;28;20030;-59
2024/01/10 04:20:10;;;;;;;62.30;23.10;;;-10.40;99.90;;;;;;5016802;28;20082;-59
2024/01/10 04:22:36;;;;;;;77.93;28.20;;;-10.40;99.90;;;;;;5021780;28;20029;-59
2024/01/10 04:25:05;;;;;;;79.47;27.17;;;-10.40;99.90;;;;;;5019059;28;20144;-59
2024/01/10 04:27:30;;;;;;;66.87;27.40;;;-10.40;99.90;;;;;;5017154;28;20036;-58
2024/01/10 04:29:56;;;;;;;72.87;30.73;;;-10.40;99.90;;;;;;5022420;28;20022;-59
2024/01/10 04:32:21;;;;;;;67.53;24.33;;;-10.50;99.90;;;;;;5020691;28;20109;-59
2024/01/10 04:34:47;;;;;;;70.43;28.03;;;-10.50;99.90;;;;;;5019073;28;20030;-58
2024/01/10 04:37:13;;;;;;;105.77;34.97;;;-10.50;99.90;;;;;;5014991;28;20038;-60
2024/01/10 04:39:40;;;;;;;93.53;34.23;;;-10.40;99.90;;;;;;5016333;28;20690;-59
2024/01/10 04:42:05;;;;;;;83.63;32.97;;;-10.40;99.90;;;;;;5011050;28;20033;-58
2024/01/10 04:44:31;;;;;;;70.50;28.07;;;-10.40;99.90;;;;;;5015522;28;20099;-59
2024/01/10 04:46:57;;;;;;;66.23;25.73;;;-10.40;99.90;;;;;;5019571;28;20105;-60
2024/01/10 04:49:22;;;;;;;67.00;26.73;;;-10.40;99.90;;;;;;5007831;28;20024;-59
2024/01/10 04:51:48;;;;;;;67.70;26.77;;;-10.40;99.90;;;;;;5006235;28;20040;-59
2024/01/10 04:54:13;;;;;;;98.43;37.37;;;-10.40;99.90;;;;;;5008382;28;20026;-59
2024/01/10 04:56:39;;;;;;;70.10;27.63;;;-10.40;99.90;;;;;;5005167;28;20111;-60
2024/01/10 04:59:05;;;;;;;67.60;26.73;;;-10.40;99.90;;;;;;5015722;28;20445;-58
2024/01/10 05:01:31;;;;;;;68.87;25.27;;;-10.40;99.90;;;;;;5021998;28;20045;-52
2024/01/10 05:03:57;;;;;;;63.07;25.10;;;-10.50;99.90;;;;;;5007143;28;20053;-59
2024/01/10 05:06:23;;;;;;;109.37;37.43;;;-10.50;99.90;;;;;;5008466;28;20057;-59
2024/01/10 05:08:48;;;;;;;72.17;29.90;;;-10.50;99.90;;;;;;5005851;28;20026;-59
2024/01/10 05:11:15;;;;;;;60.67;26.53;;;-10.50;99.90;;;;;;5006875;28;20030;-59
2024/01/10 05:13:40;;;;;;;69.17;27.10;;;-10.50;99.90;;;;;;5011846;28;20076;-59
2024/01/10 05:16:06;;;;;;;78.73;30.57;;;-10.50;99.90;;;;;;5012494;28;20053;-59
2024/01/10 05:18:32;;;;;;;60.97;23.20;;;-10.50;99.90;;;;;;5015271;28;20449;-59
2024/01/10 05:20:59;;;;;;;70.73;28.97;;;-10.50;99.90;;;;;;5013343;28;20026;-59
2024/01/10 05:23:24;;;;;;;67.20;26.80;;;-10.50;99.90;;;;;;5006184;28;20037;-59
2024/01/10 05:25:50;;;;;;;71.47;25.43;;;-10.50;99.90;;;;;;5014664;28;20059;-60
2024/01/10 05:28:16;;;;;;;83.37;28.83;;;-10.50;99.90;;;;;;5004871;28;20057;-59
2024/01/10 05:30:43;;;;;;;100.33;38.00;;;-10.50;99.90;;;;;;5009630;28;20563;-59
2024/01/10 05:33:08;;;;;;;72.70;28.70;;;-10.50;99.90;;;;;;5004413;28;20449;-59
2024/01/10 05:35:35;;;;;;;69.03;26.70;;;-10.40;99.90;;;;;;5014304;28;20041;-59
2024/01/10 05:38:02;;;;;;;66.63;26.30;;;-10.50;99.90;;;;;;5015345;28;20575;-59
2024/01/10 05:40:30;;;;;;;72.47;30.13;;;-10.50;99.90;;;;;;5013954;28;20037;-60
2024/01/10 05:42:55;;;;;;;67.33;26.20;;;-10.50;99.90;;;;;;5018076;28;20104;-59
2024/01/10 05:45:21;;;;;;;73.57;27.07;;;-10.50;99.90;;;;;;5019269;28;20112;-59
2024/01/10 05:47:48;;;;;;;51.67;21.07;;;-10.50;99.90;;;;;;5019014;28;20033;-59
2024/01/10 05:50:14;;;;;;;58.47;23.00;;;-10.60;99.90;;;;;;5017888;28;20535;-58
2024/01/10 05:52:39;;;;;;;56.60;21.67;;;-10.50;99.90;;;;;;5011287;28;20041;-61
2024/01/10 05:55:06;;;;;;;61.77;24.77;;;-10.60;99.90;;;;;;5019122;28;20029;-60
2024/01/10 05:57:32;;;;;;;59.87;24.67;;;-10.60;99.90;;;;;;5020560;28;20600;-63
2024/01/10 05:59:57;;;;;;;60.40;19.90;;;-10.60;99.90;;;;;;5021448;28;20025;-59
2024/01/10 06:02:24;;;;;;;66.77;26.20;;;-10.60;99.90;;;;;;5015162;28;20036;-59
2024/01/10 06:04:50;;;;;;;62.73;25.23;;;-10.60;99.90;;;;;;5015986;28;20033;-59
2024/01/10 06:07:15;;;;;;;77.17;29.13;;;-10.60;99.90;;;;;;5007286;28;20314;-58
2024/01/10 06:09:43;;;;;;;68.80;28.27;;;-10.60;99.90;;;;;;5012138;28;20562;-59
2024/01/10 06:12:09;;;;;;;54.53;22.50;;;-10.70;99.90;;;;;;5012821;28;20022;-59
2024/01/10 06:14:34;;;;;;;82.00;31.63;;;-10.70;99.90;;;;;;5011423;28;20482;-59
2024/01/10 06:17:01;;;;;;;70.33;26.33;;;-10.70;99.90;;;;;;5011232;28;20029;-58
2024/01/10 06:19:26;;;;;;;60.80;22.73;;;-10.70;99.90;;;;;;5018386;28;20034;-57
2024/01/10 06:21:52;;;;;;;56.43;22.60;;;-10.70;99.90;;;;;;5011650;28;20405;-59
2024/01/10 06:24:19;;;;;;;58.20;22.60;;;-10.80;99.90;;;;;;5011456;28;20067;-58
2024/01/10 06:26:44;;;;;;;68.70;24.60;;;-10.80;99.90;;;;;;5012181;28;20491;-59
2024/01/10 06:29:10;;;;;;;81.43;30.97;;;-10.70;99.90;;;;;;5013648;28;20112;-48
2024/01/10 06:31:35;;;;;;;62.80;26.43;;;-10.80;99.90;;;;;;5021085;28;20040;-52
2024/01/10 06:34:01;;;;;;;73.23;28.77;;;-10.80;99.90;;;;;;5017213;28;20022;-53
2024/01/10 06:36:26;;;;;;;74.80;27.93;;;-10.80;99.90;;;;;;5022263;28;20030;-48
2024/01/10 06:38:52;;;;;;;76.57;27.50;;;-10.80;99.90;;;;;;5020881;28;20042;-48
2024/01/10 06:41:23;;;;;;;61.00;25.57;;;-10.80;99.90;;;;;;5014895;28;20029;-50
2024/01/10 06:43:48;;;;;;;54.40;23.80;;;-10.80;99.90;;;;;;5013343;28;20040;-49
2024/01/10 06:46:14;;;;;;;63.57;23.93;;;-10.80;99.90;;;;;;5015056;28;20026;-51
2024/01/10 06:48:39;;;;;;;90.33;31.87;;;-10.80;99.90;;;;;;5016312;28;20049;-49
2024/01/10 06:51:10;;;;;;;80.40;32.20;;;-10.80;99.90;;;;;;5009317;28;20229;-51
2024/01/10 06:53:36;;;;;;;65.93;26.67;;;-10.80;99.90;;;;;;5012758;28;20026;-47
2024/01/10 06:56:01;;;;;;;66.33;27.00;;;-10.80;99.90;;;;;;5013033;28;20064;-50
2024/01/10 06:58:27;;;;;;;88.70;32.60;;;-10.80;99.90;;;;;;5009380;28;20419;-51
2024/01/10 07:00:52;;;;;;;92.90;33.20;;;-10.80;99.90;;;;;;5008433;28;20033;-50
2024/01/10 07:03:19;;;;;;;78.80;31.67;;;-10.80;99.90;;;;;;5008131;28;20069;-51
2024/01/10 07:05:44;;;;;;;80.67;29.07;;;-10.80;99.90;;;;;;5016014;28;20029;-53
2024/01/10 07:08:10;;;;;;;70.03;28.20;;;-10.80;99.90;;;;;;5018530;28;20021;-47
2024/01/10 07:10:35;;;;;;;73.13;28.57;;;-10.80;99.90;;;;;;5021921;28;20037;-50
2024/01/10 07:13:04;;;;;;;71.20;27.80;;;-10.80;99.90;;;;;;5006466;28;20022;-51
2024/01/10 07:15:30;;;;;;;78.60;31.20;;;-10.80;99.90;;;;;;5009376;28;20075;-51
2024/01/10 07:17:55;;;;;;;55.20;23.23;;;-10.80;99.90;;;;;;5010029;28;20037;-51
2024/01/10 07:20:23;;;;;;;58.37;23.77;;;-10.80;99.90;;;;;;5010203;28;20022;-52
2024/01/10 07:22:49;;;;;;;77.80;31.70;;;-10.70;99.90;;;;;;5013154;28;20030;-53
2024/01/10 07:25:15;;;;;;;66.50;29.23;;;-10.70;99.90;;;;;;5012018;28;20661;-51
2024/01/10 07:27:41;;;;;;;70.77;27.67;;;-10.70;99.90;;;;;;5018010;28;20362;-53
2024/01/10 07:30:13;;;;;;;79.20;32.07;;;-10.70;99.90;;;;;;5010190;28;20675;-52
2024/01/10 07:32:42;;;;;;;108.03;37.27;;;-10.70;99.90;;;;;;5008664;28;20478;-50
2024/01/10 07:35:09;;;;;;;74.87;30.57;;;-10.70;99.90;;;;;;5009524;28;20548;-53
2024/01/10 07:37:39;;;;;;;77.23;29.57;;;-10.60;99.90;;;;;;5012167;28;20131;-51
2024/01/10 07:40:06;;;;;;;72.87;28.37;;;-10.60;99.90;;;;;;5018900;28;20021;-51
2024/01/10 07:42:32;;;;;;;69.37;28.20;;;-10.50;99.90;;;;;;5021704;28;20564;-50
2024/01/10 07:44:58;;;;;;;79.60;32.80;;;-10.50;99.90;;;;;;5013762;28;20084;-51
2024/01/10 07:47:23;;;;;;;77.00;31.37;;;-10.50;99.90;;;;;;5010335;28;20493;-50
2024/01/10 07:49:49;;;;;;;86.40;31.50;;;-10.40;99.90;;;;;;5013439;28;20172;-49
2024/01/10 07:52:16;;;;;;;88.30;31.03;;;-10.40;99.90;;;;;;5009925;28;20413;-52
2024/01/10 07:54:42;;;;;;;60.33;23.97;;;-10.40;99.90;;;;;;5017243;28;20030;-51
2024/01/10 07:57:07;;;;;;;57.43;26.27;;;-10.30;99.90;;;;;;5011381;28;20025;-49
2024/01/10 07:59:33;;;;;;;64.43;29.27;;;-10.30;99.90;;;;;;5011104;28;20093;-49
2024/01/10 08:02:00;;;;;;;67.93;28.30;;;-10.20;99.90;;;;;;5010012;28;20029;-49
2024/01/10 08:04:26;;;;;;;56.63;22.40;;;-10.10;99.90;;;;;;5003651;28;20030;-52
2024/01/10 08:06:52;;;;;;;61.97;26.17;;;-10.10;99.90;;;;;;5008333;28;20029;-51
2024/01/10 08:09:21;;;;;;;98.37;36.60;;;-10.00;99.90;;;;;;5005933;28;20548;-50
2024/01/10 08:11:47;;;;;;;99.87;36.80;;;-9.90;99.90;;;;;;5009971;28;20034;-46
2024/01/10 08:14:13;;;;;;;69.87;28.10;;;-9.80;99.90;;;;;;5011868;28;20113;-52
2024/01/10 08:16:39;;;;;;;115.80;39.83;;;-9.70;99.90;;;;;;5012603;28;20068;-52
2024/01/10 08:19:04;;;;;;;94.73;40.00;;;-9.60;99.90;;;;;;5018202;28;20060;-53
2024/01/10 08:21:30;;;;;;;93.63;39.20;;;-9.50;99.90;;;;;;5018998;28;20041;-51
2024/01/10 08:23:55;;;;;;;113.33;43.20;;;-9.40;99.90;;;;;;5021067;28;20111;-53
2024/01/10 08:26:21;;;;;;;109.47;41.57;;;-9.20;99.90;;;;;;5016329;28;20013;-49
2024/01/10 08:28:46;;;;;;;110.67;43.43;;;-9.10;99.90;;;;;;5014955;28;20029;-50
2024/01/10 08:31:16;;;;;;;91.80;38.60;;;-8.90;99.90;;;;;;5017289;28;20074;-49
2024/01/10 08:33:41;;;;;;;138.80;50.83;;;-8.70;99.90;;;;;;5016075;28;20413;-49
2024/01/10 08:36:07;;;;;;;117.63;45.17;;;-8.40;99.90;;;;;;5017903;28;20043;-50
2024/01/10 08:38:32;;;;;;;108.17;45.37;;;-8.10;99.90;;;;;;5016666;28;20071;-51
2024/01/10 08:40:58;;;;;;;98.37;41.70;;;-8.00;99.90;;;;;;5013148;28;20033;-51
2024/01/10 08:43:23;;;;;;;96.17;38.90;;;-7.70;99.90;;;;;;5011186;28;20054;-51
2024/01/10 08:45:49;;;;;;;87.17;34.80;;;-7.60;99.90;;;;;;5012674;28;20041;-49
2024/01/10 08:48:15;;;;;;;97.47;38.50;;;-7.40;99.90;;;;;;5004894;28;20438;-52
2024/01/10 08:50:41;;;;;;;110.33;46.67;;;-7.20;99.90;;;;;;5008866;28;20041;-53
2024/01/10 08:53:07;;;;;;;102.03;37.73;;;-7.00;99.90;;;;;;5012053;28;20044;-52
2024/01/10 08:55:33;;;;;;;109.60;39.13;;;-6.80;99.90;;;;;;5006968;28;20034;-49
2024/01/10 08:57:59;;;;;;;107.47;42.27;;;-6.60;99.90;;;;;;5010793;28;20053;-51
2024/01/10 09:00:24;;;;;;;114.63;41.70;;;-6.40;99.90;;;;;;5012235;28;20366;-52
2024/01/10 09:02:50;;;;;;;113.80;44.65;;;-6.20;99.90;;;;;;5008656;28;20075;-50
2024/01/10 09:05:16;;;;;;;125.93;44.15;;;-6.00;99.90;;;;;;5006165;28;20109;-53
2024/01/10 09:07:42;;;;;;;112.38;43.67;;;-5.80;99.90;;;;;;5007484;28;20117;-52
2024/01/10 09:10:08;;;;;;;106.05;41.85;;;-5.60;99.90;;;;;;5006917;28;20048;-54
2024/01/10 09:12:34;;;;;;;115.00;46.92;;;-5.40;99.90;;;;;;5014927;28;20033;-53
2024/01/10 09:15:00;;;;;;;122.82;45.40;;;-5.20;99.90;;;;;;5008832;28;20060;-51
2024/01/10 09:17:27;;;;;;;97.20;40.83;;;-5.00;99.90;;;;;;5007417;28;20065;-50
2024/01/10 09:19:53;;;;;;;113.22;46.10;;;-4.80;99.90;;;;;;5016628;28;20497;-51
2024/01/10 09:22:18;;;;;;;110.20;44.03;;;-4.70;99.90;;;;;;5007491;28;20029;-52
2024/01/10 09:24:44;;;;;;;94.10;38.45;;;-4.60;99.90;;;;;;5013599;28;20476;-52
2024/01/10 09:27:10;;;;;;;99.63;40.50;;;-4.50;99.90;;;;;;5007359;28;20125;-51
2024/01/10 09:29:36;;;;;;;118.82;49.92;;;-4.40;99.90;;;;;;5008009;28;20026;-54
2024/01/10 09:32:01;;;;;;;109.03;48.05;;;-4.30;99.90;;;;;;5015101;28;20397;-50
2024/01/10 09:34:27;;;;;;;107.03;44.83;;;-4.30;99.90;;;;;;5014660;28;20108;-50
2024/01/10 09:36:52;;;;;;;115.65;48.85;;;-4.30;99.20;;;;;;5015291;28;20473;-50
2024/01/10 09:39:18;;;;;;;111.65;44.45;;;-4.20;98.10;;;;;;5010259;28;20030;-53
2024/01/10 09:41:48;;;;;;;114.20;47.40;;;-4.20;96.10;;;;;;5007782;28;20026;-49
2024/01/10 09:44:15;;;;;;;122.40;48.10;;;-4.20;94.20;;;;;;5011142;28;20093;-49
2024/01/10 09:46:43;;;;;;;99.57;43.35;;;-4.20;94.10;;;;;;5007493;28;20083;-50
2024/01/10 09:49:09;;;;;;;103.43;44.45;;;-4.10;93.20;;;;;;5010901;28;20157;-50
2024/01/10 09:51:34;;;;;;;96.40;42.75;;;-4.10;92.90;;;;;;5006571;28;20061;-52
2024/01/10 09:54:02;;;;;;;107.15;45.20;;;-4.00;92.20;;;;;;5009858;28;20025;-54
2024/01/10 09:56:28;;;;;;;101.07;43.50;;;-4.00;90.70;;;;;;5010722;28;20073;-53
2024/01/10 09:58:58;;;;;;;92.55;39.20;;;-3.90;91.10;;;;;;5006796;28;20141;-49
2024/01/10 10:01:24;;;;;;;106.53;43.33;;;-3.90;90.40;;;;;;5011460;28;20053;-51
2024/01/10 10:03:50;;;;;;;98.82;44.03;;;-3.80;90.50;;;;;;5015290;28;20022;-52
2024/01/10 10:06:16;;;;;;;90.53;40.05;;;-3.70;90.10;;;;;;5021074;28;20026;-52
2024/01/10 10:08:41;;;;;;;90.93;41.00;;;-3.60;89.60;;;;;;5019763;28;20027;-54
2024/01/10 10:11:13;;;;;;;106.70;41.95;;;-3.50;88.50;;;;;;5016898;28;20032;-54
2024/01/10 10:13:41;;;;;;;85.88;36.17;;;-3.50;87.40;;;;;;5009714;28;20660;-53
2024/01/10 10:16:09;;;;;;;84.40;35.65;;;-3.40;85.90;;;;;;5015734;28;20024;-49
2024/01/10 10:18:35;;;;;;;90.65;36.53;;;-3.40;87.30;;;;;;5013024;28;20030;-52
2024/01/10 10:21:09;;;;;;;91.65;37.83;;;-3.30;87.30;;;;;;5011358;28;20060;-54
2024/01/10 10:23:36;;;;;;;89.68;37.92;;;-3.20;87.40;;;;;;5009571;28;20108;-53
2024/01/10 10:26:11;;;;;;;91.25;39.42;;;-3.20;86.10;;;;;;5010158;28;20101;-54
2024/01/10 10:28:36;;;;;;;102.43;41.95;;;-3.10;86.50;;;;;;5010044;28;20026;-54
2024/01/10 10:31:02;;;;;;;100.90;40.22;;;-3.10;85.10;;;;;;5013443;28;20148;-52
2024/01/10 10:33:28;;;;;;;90.68;39.40;;;-3.20;82.90;;;;;;5011311;28;20120;-52
2024/01/10 10:35:55;;;;;;;101.38;41.72;;;-3.20;83.50;;;;;;5016538;28;20022;-52
2024/01/10 10:38:22;;;;;;;93.20;37.92;;;-3.20;82.30;;;;;;5013794;28;20032;-53
2024/01/10 10:40:48;;;;;;;78.70;35.60;;;-3.20;82.90;;;;;;5020302;28;20612;-51
2024/01/10 10:43:18;;;;;;;158.70;56.50;;;-3.20;82.50;;;;;;5017475;28;20037;-53
2024/01/10 10:45:48;;;;;;;105.28;41.53;;;-3.20;83.80;;;;;;5015967;28;20051;-54
2024/01/10 10:48:17;;;;;;;109.88;41.53;;;-3.20;83.00;;;;;;5010671;28;20030;-52
2024/01/10 10:51:06;;;;;;;100.00;41.22;;;-3.10;82.40;;;;;;5016066;28;20030;-54
2024/01/10 10:53:34;;;;;;;94.57;38.38;;;-3.10;80.70;;;;;;5020517;28;20127;-51
2024/01/10 10:56:02;;;;;;;93.80;36.55;;;-3.20;79.80;;;;;;5016766;28;20022;-53
2024/01/10 10:58:27;;;;;;;88.78;36.53;;;-3.10;80.50;;;;;;5018929;28;20041;-52
2024/01/10 11:00:53;;;;;;;84.32;34.45;;;-3.10;80.70;;;;;;5014220;28;20066;-51
2024/01/10 11:03:21;;;;;;;73.45;33.05;;;-3.10;80.40;;;;;;5009085;28;20879;-52
2024/01/10 11:05:47;;;;;;;90.18;34.85;;;-3.10;79.80;;;;;;5016011;28;20026;-54
2024/01/10 11:08:16;;;;;;;92.50;36.80;;;-3.10;80.80;;;;;;5011627;28;20021;-54
2024/01/10 11:10:43;;;;;;;81.60;33.20;;;-3.10;77.80;;;;;;5015726;28;20071;-48
2024/01/10 11:13:32;;;;;;;83.22;33.45;;;-3.10;78.50;;;;;;5017599;28;20493;-51
2024/01/10 11:16:10;;;;;;;75.00;29.45;;;-3.10;79.50;;;;;;5008822;28;20037;-54
2024/01/10 11:19:03;;;;;;;87.97;34.30;;;-3.10;79.00;;;;;;5013998;28;20030;-54
2024/01/10 11:21:45;;;;;;;92.03;38.13;;;-3.10;79.80;;;;;;5015262;28;20033;-51
2024/01/10 11:24:11;;;;;;;86.20;34.92;;;-3.00;79.00;;;;;;5013957;28;20034;-53
2024/01/10 11:26:37;;;;;;;97.75;37.97;;;-3.00;76.30;;;;;;5020073;28;20071;-52
2024/01/10 11:29:04;;;;;;;90.00;39.00;;;-3.00;76.30;;;;;;5015591;28;20685;-53
2024/01/10 11:31:31;;;;;;;90.18;36.33;;;-3.00;76.20;;;;;;5016094;28;20051;-54
2024/01/10 11:33:58;;;;;;;78.65;34.55;;;-3.00;77.00;;;;;;5018634;28;20013;-53
2024/01/10 11:36:24;;;;;;;78.47;35.63;;;-3.00;76.20;;;;;;5012035;28;20028;-49
2024/01/10 11:38:59;;;;;;;86.05;34.90;;;-2.90;75.00;;;;;;5013520;28;20033;-53
2024/01/10 11:41:29;;;;;;;75.70;30.83;;;-3.00;73.90;;;;;;5012648;28;20409;-54
2024/01/10 11:44:15;;;;;;;68.38;29.27;;;-2.90;74.60;;;;;;5014867;28;20084;-53
2024/01/10 11:46:42;;;;;;;69.78;28.92;;;-2.90;75.00;;;;;;5016077;28;20549;-52
2024/01/10 11:49:11;;;;;;;72.85;31.85;;;-2.90;75.50;;;;;;5016184;28;20440;-54
2024/01/10 11:51:38;;;;;;;81.88;34.28;;;-2.80;75.80;;;;;;5009408;28;20057;-52
2024/01/10 11:54:03;;;;;;;78.88;33.28;;;-2.80;75.40;;;;;;5013963;28;20079;-53
2024/01/10 11:56:41;;;;;;;69.45;28.77;;;-2.80;75.50;;;;;;5005188;28;20552;-51
2024/01/10 11:59:12;;;;;;;76.03;31.42;;;-2.70;74.70;;;;;;5004997;28;20405;-48
2024/01/10 12:01:39;;;;;;;69.18;28.88;;;-2.70;74.80;;;;;;5012258;28;20026;-51
2024/01/10 12:04:05;;;;;;;58.67;26.40;;;-2.70;74.30;;;;;;5007529;28;20015;-49
2024/01/10 12:06:31;;;;;;;60.22;26.10;;;-2.70;74.10;;;;;;5003976;28;20037;-54
2024/01/10 12:08:57;;;;;;;65.68;26.38;;;-2.60;73.70;;;;;;5007653;28;20029;-51
2024/01/10 12:11:23;;;;;;;71.72;27.73;;;-2.60;73.60;;;;;;5016465;28;20087;-50
2024/01/10 12:13:49;;;;;;;57.35;23.88;;;-2.60;72.60;;;;;;5014330;28;20025;-53